sensor_id;sensor_type;location;lat;lon;timestamp;P1;durP1;ratioP1;P2;durP2;ratioP2
23573;SDS011;11965;53.640;10.050;2022-10-16T00:00:31;136536.70;;;66164.11;;
23573;SDS011;11965;53.640;10.050;2022-10-16T00:02:57;136192.91;;;66023.68;;
23573;SDS011;11965;53.640;10.050;2022-10-16T00:05:23;136107.28;;;65989.23;;
23573;SDS011;11965;53.640;10.050;2022-10-16T00:07:49;136509.78;;;66141.81;;
23573;SDS011;11965;53.640;10.050;2022-10-16T00:10:14;136503.77;;;66143.42;;
23573;SDS011;11965;53.640;10.050;2022-10-16T00:12:40;136293.44;;;66061.01;;
23573;SDS011;11965;53.640;10.050;2022-10-16T00:15:06;136486.53;;;66138.41;;
23573;SDS011;11965;53.640;10.050;2022-10-16T00:17:32;136374.72;;;66100.24;;
23573;SDS011;11965;53.640;10.050;2022-10-16T00:19:57;136274.30;;;66062.20;;
23573;SDS011;11965;53.640;10.050;2022-10-16T00:22:23;136488.16;;;66144.21;;
23573;SDS011;11965;53.640;10.050;2022-10-16T00:24:49;136422.06;;;66119.48;;
23573;SDS011;11965;53.640;10.050;2022-10-16T00:27:15;136840.11;;;66281.02;;
23573;SDS011;11965;53.640;10.050;2022-10-16T00:29:42;136592.66;;;66184.14;;
23573;SDS011;11965;53.640;10.050;2022-10-16T00:32:07;136264.38;;;66053.79;;
23573;SDS011;11965;53.640;10.050;2022-10-16T00:34:33;136410.34;;;66110.04;;
23573;SDS011;11965;53.640;10.050;2022-10-16T00:36:59;136554.73;;;66173.37;;
23573;SDS011;11965;53.640;10.050;2022-10-16T00:39:25;136750.05;;;66253.09;;
23573;SDS011;11965;53.640;10.050;2022-10-16T00:41:51;136965.23;;;66335.14;;
23573;SDS011;11965;53.640;10.050;2022-10-16T00:47:11;137118.33;;;66399.15;;
23573;SDS011;11965;53.640;10.050;2022-10-16T00:49:44;136955.64;;;66337.85;;
23573;SDS011;11965;53.640;10.050;2022-10-16T00:52:11;137009.70;;;66359.46;;
23573;SDS011;11965;53.640;10.050;2022-10-16T00:54:38;136444.16;;;66132.33;;
23573;SDS011;11965;53.640;10.050;2022-10-16T00:57:04;136762.23;;;66257.63;;
23573;SDS011;11965;53.640;10.050;2022-10-16T00:59:33;136618.58;;;66198.02;;
23573;SDS011;11965;53.640;10.050;2022-10-16T01:02:02;136756.39;;;66255.70;;
23573;SDS011;11965;53.640;10.050;2022-10-16T01:04:31;136527.45;;;66156.63;;
23573;SDS011;11965;53.640;10.050;2022-10-16T01:12:43;136901.52;;;66310.04;;
23573;SDS011;11965;53.640;10.050;2022-10-16T01:15:27;136806.94;;;66275.96;;
23573;SDS011;11965;53.640;10.050;2022-10-16T01:20:29;136919.48;;;66324.21;;
23573;SDS011;11965;53.640;10.050;2022-10-16T01:23:04;136767.42;;;66263.07;;
23573;SDS011;11965;53.640;10.050;2022-10-16T01:31:52;137219.95;;;66453.37;;
23573;SDS011;11965;53.640;10.050;2022-10-16T01:34:29;137548.45;;;66584.22;;
23573;SDS011;11965;53.640;10.050;2022-10-16T01:37:04;137384.14;;;66516.13;;
23573;SDS011;11965;53.640;10.050;2022-10-16T01:39:37;137398.42;;;66515.84;;
23573;SDS011;11965;53.640;10.050;2022-10-16T01:44:45;137781.66;;;66677.01;;
23573;SDS011;11965;53.640;10.050;2022-10-16T01:47:15;137579.11;;;66599.17;;
23573;SDS011;11965;53.640;10.050;2022-10-16T01:49:46;137474.55;;;66553.66;;
23573;SDS011;11965;53.640;10.050;2022-10-16T01:52:14;137458.98;;;66542.51;;
23573;SDS011;11965;53.640;10.050;2022-10-16T01:54:46;137255.83;;;66468.63;;
23573;SDS011;11965;53.640;10.050;2022-10-16T01:57:16;137542.30;;;66585.20;;
23573;SDS011;11965;53.640;10.050;2022-10-16T01:59:46;137583.75;;;66601.48;;
23573;SDS011;11965;53.640;10.050;2022-10-16T02:02:15;137747.11;;;66664.95;;
23573;SDS011;11965;53.640;10.050;2022-10-16T02:04:46;137591.47;;;66603.76;;
23573;SDS011;11965;53.640;10.050;2022-10-16T02:07:18;137511.63;;;66569.77;;
23573;SDS011;11965;53.640;10.050;2022-10-16T02:09:44;137605.69;;;66606.04;;
23573;SDS011;11965;53.640;10.050;2022-10-16T02:12:23;137616.80;;;66616.15;;
23573;SDS011;11965;53.640;10.050;2022-10-16T02:14:52;137447.80;;;66545.51;;
23573;SDS011;11965;53.640;10.050;2022-10-16T02:17:18;137196.06;;;66441.41;;
23573;SDS011;11965;53.640;10.050;2022-10-16T02:19:45;137273.06;;;66466.32;;
23573;SDS011;11965;53.640;10.050;2022-10-16T02:22:19;137318.70;;;66487.91;;
23573;SDS011;11965;53.640;10.050;2022-10-16T02:25:01;137266.45;;;66462.43;;
23573;SDS011;11965;53.640;10.050;2022-10-16T02:27:49;137281.08;;;66467.74;;
23573;SDS011;11965;53.640;10.050;2022-10-16T02:32:58;137593.16;;;66601.23;;
23573;SDS011;11965;53.640;10.050;2022-10-16T02:35:29;137712.19;;;66648.21;;
23573;SDS011;11965;53.640;10.050;2022-10-16T02:37:57;137876.48;;;66713.46;;
23573;SDS011;11965;53.640;10.050;2022-10-16T02:40:24;137931.45;;;66733.83;;
23573;SDS011;11965;53.640;10.050;2022-10-16T02:42:52;137984.86;;;66759.52;;
23573;SDS011;11965;53.640;10.050;2022-10-16T02:45:19;137880.61;;;66716.13;;
23573;SDS011;11965;53.640;10.050;2022-10-16T02:47:46;137641.53;;;66622.70;;
23573;SDS011;11965;53.640;10.050;2022-10-16T02:50:12;137799.28;;;66684.66;;
23573;SDS011;11965;53.640;10.050;2022-10-16T02:52:37;137911.44;;;66727.16;;
23573;SDS011;11965;53.640;10.050;2022-10-16T02:55:03;137560.95;;;66589.09;;
23573;SDS011;11965;53.640;10.050;2022-10-16T02:57:29;137179.66;;;66439.94;;
23573;SDS011;11965;53.640;10.050;2022-10-16T02:59:56;137691.19;;;66650.60;;
23573;SDS011;11965;53.640;10.050;2022-10-16T03:02:22;137244.83;;;66474.33;;
23573;SDS011;11965;53.640;10.050;2022-10-16T03:04:47;137800.14;;;66690.08;;
23573;SDS011;11965;53.640;10.050;2022-10-16T03:07:13;137706.09;;;66651.64;;
23573;SDS011;11965;53.640;10.050;2022-10-16T03:09:38;137753.08;;;66670.45;;
23573;SDS011;11965;53.640;10.050;2022-10-16T03:12:04;137704.02;;;66652.89;;
23573;SDS011;11965;53.640;10.050;2022-10-16T03:14:29;137805.36;;;66689.63;;
23573;SDS011;11965;53.640;10.050;2022-10-16T03:16:55;137942.34;;;66744.41;;
23573;SDS011;11965;53.640;10.050;2022-10-16T03:19:21;138083.34;;;66802.43;;
23573;SDS011;11965;53.640;10.050;2022-10-16T03:21:46;137804.55;;;66689.82;;
23573;SDS011;11965;53.640;10.050;2022-10-16T03:24:12;137978.83;;;66763.05;;
23573;SDS011;11965;53.640;10.050;2022-10-16T03:26:37;137988.70;;;66767.84;;
23573;SDS011;11965;53.640;10.050;2022-10-16T03:29:03;137892.86;;;66730.37;;
23573;SDS011;11965;53.640;10.050;2022-10-16T03:31:29;137974.92;;;66757.48;;
23573;SDS011;11965;53.640;10.050;2022-10-16T03:33:55;137988.33;;;66760.69;;
23573;SDS011;11965;53.640;10.050;2022-10-16T03:36:21;138452.73;;;66951.16;;
23573;SDS011;11965;53.640;10.050;2022-10-16T03:38:47;138326.53;;;66899.63;;
23573;SDS011;11965;53.640;10.050;2022-10-16T03:41:13;138701.56;;;67056.98;;
23573;SDS011;11965;53.640;10.050;2022-10-16T03:43:38;138475.30;;;66964.95;;
23573;SDS011;11965;53.640;10.050;2022-10-16T03:46:04;138641.53;;;67032.53;;
23573;SDS011;11965;53.640;10.050;2022-10-16T03:48:30;138687.36;;;67057.62;;
23573;SDS011;11965;53.640;10.050;2022-10-16T03:50:55;138929.69;;;67152.22;;
23573;SDS011;11965;53.640;10.050;2022-10-16T03:53:21;138796.66;;;67096.77;;
23573;SDS011;11965;53.640;10.050;2022-10-16T03:55:47;138854.45;;;67118.68;;
23573;SDS011;11965;53.640;10.050;2022-10-16T03:58:12;138358.75;;;66912.15;;
23573;SDS011;11965;53.640;10.050;2022-10-16T04:00:42;138737.23;;;67072.90;;
23573;SDS011;11965;53.640;10.050;2022-10-16T04:03:08;138774.59;;;67091.41;;
23573;SDS011;11965;53.640;10.050;2022-10-16T04:05:34;138814.70;;;67106.15;;
23573;SDS011;11965;53.640;10.050;2022-10-16T04:07:59;138418.81;;;66948.04;;
23573;SDS011;11965;53.640;10.050;2022-10-16T04:10:25;138557.44;;;66997.94;;
23573;SDS011;11965;53.640;10.050;2022-10-16T04:12:51;138025.53;;;66791.98;;
23573;SDS011;11965;53.640;10.050;2022-10-16T04:15:16;137896.42;;;66735.02;;
23573;SDS011;11965;53.640;10.050;2022-10-16T04:17:42;138663.98;;;67043.85;;
23573;SDS011;11965;53.640;10.050;2022-10-16T04:20:08;138949.92;;;67162.50;;
23573;SDS011;11965;53.640;10.050;2022-10-16T04:22:33;138956.36;;;67169.83;;
23573;SDS011;11965;53.640;10.050;2022-10-16T04:24:59;138724.34;;;67072.06;;
23573;SDS011;11965;53.640;10.050;2022-10-16T04:27:25;138785.70;;;67091.46;;
23573;SDS011;11965;53.640;10.050;2022-10-16T04:29:50;138228.23;;;66866.90;;
23573;SDS011;11965;53.640;10.050;2022-10-16T04:32:16;138162.41;;;66839.86;;
23573;SDS011;11965;53.640;10.050;2022-10-16T04:34:42;138063.30;;;66799.58;;
23573;SDS011;11965;53.640;10.050;2022-10-16T04:37:07;138871.67;;;67132.57;;
23573;SDS011;11965;53.640;10.050;2022-10-16T04:39:33;138439.09;;;66960.62;;
23573;SDS011;11965;53.640;10.050;2022-10-16T04:41:58;138551.92;;;67000.17;;
23573;SDS011;11965;53.640;10.050;2022-10-16T04:44:24;138802.08;;;67102.54;;
23573;SDS011;11965;53.640;10.050;2022-10-16T04:46:50;138604.78;;;67025.48;;
23573;SDS011;11965;53.640;10.050;2022-10-16T04:49:16;138879.75;;;67142.02;;
23573;SDS011;11965;53.640;10.050;2022-10-16T04:51:42;138731.70;;;67074.37;;
23573;SDS011;11965;53.640;10.050;2022-10-16T04:54:08;138850.17;;;67124.64;;
23573;SDS011;11965;53.640;10.050;2022-10-16T04:56:34;138185.56;;;66854.89;;
23573;SDS011;11965;53.640;10.050;2022-10-16T04:59:07;138020.53;;;66782.41;;
23573;SDS011;11965;53.640;10.050;2022-10-16T05:01:33;138329.20;;;66904.25;;
23573;SDS011;11965;53.640;10.050;2022-10-16T05:03:59;138391.88;;;66932.76;;
23573;SDS011;11965;53.640;10.050;2022-10-16T05:06:25;138201.14;;;66855.52;;
23573;SDS011;11965;53.640;10.050;2022-10-16T05:08:50;138264.17;;;66874.43;;
23573;SDS011;11965;53.640;10.050;2022-10-16T05:11:16;138232.16;;;66864.17;;
23573;SDS011;11965;53.640;10.050;2022-10-16T05:13:41;138854.06;;;67116.89;;
23573;SDS011;11965;53.640;10.050;2022-10-16T05:16:07;138732.95;;;67070.33;;
23573;SDS011;11965;53.640;10.050;2022-10-16T05:18:33;138310.23;;;66897.98;;
23573;SDS011;11965;53.640;10.050;2022-10-16T05:20:58;138428.08;;;66944.29;;
23573;SDS011;11965;53.640;10.050;2022-10-16T05:23:24;138617.03;;;67022.80;;
23573;SDS011;11965;53.640;10.050;2022-10-16T05:25:53;138352.80;;;66916.34;;
23573;SDS011;11965;53.640;10.050;2022-10-16T05:28:20;138509.27;;;66980.73;;
23573;SDS011;11965;53.640;10.050;2022-10-16T05:30:46;138670.55;;;67040.83;;
23573;SDS011;11965;53.640;10.050;2022-10-16T05:33:11;138221.09;;;66863.05;;
23573;SDS011;11965;53.640;10.050;2022-10-16T05:35:37;138332.17;;;66910.98;;
23573;SDS011;11965;53.640;10.050;2022-10-16T05:38:03;138265.30;;;66884.02;;
23573;SDS011;11965;53.640;10.050;2022-10-16T05:40:28;138216.77;;;66866.66;;
23573;SDS011;11965;53.640;10.050;2022-10-16T05:42:54;138527.16;;;66981.99;;
23573;SDS011;11965;53.640;10.050;2022-10-16T05:45:21;138600.17;;;67011.19;;
23573;SDS011;11965;53.640;10.050;2022-10-16T05:47:46;138790.72;;;67085.23;;
23573;SDS011;11965;53.640;10.050;2022-10-16T05:50:12;138536.39;;;66987.64;;
23573;SDS011;11965;53.640;10.050;2022-10-16T05:52:37;138721.92;;;67060.70;;
23573;SDS011;11965;53.640;10.050;2022-10-16T05:55:03;138785.55;;;67095.59;;
23573;SDS011;11965;53.640;10.050;2022-10-16T05:57:29;138811.67;;;67109.25;;
23573;SDS011;11965;53.640;10.050;2022-10-16T05:59:55;138887.11;;;67143.16;;
23573;SDS011;11965;53.640;10.050;2022-10-16T06:02:20;138384.28;;;66933.73;;
23573;SDS011;11965;53.640;10.050;2022-10-16T06:04:46;137614.47;;;66618.35;;
23573;SDS011;11965;53.640;10.050;2022-10-16T06:07:11;137983.89;;;66763.16;;
23573;SDS011;11965;53.640;10.050;2022-10-16T06:09:37;138074.14;;;66801.90;;
23573;SDS011;11965;53.640;10.050;2022-10-16T06:12:03;138094.20;;;66808.77;;
23573;SDS011;11965;53.640;10.050;2022-10-16T06:14:29;137939.05;;;66746.65;;
23573;SDS011;11965;53.640;10.050;2022-10-16T06:16:54;137999.75;;;66772.13;;
23573;SDS011;11965;53.640;10.050;2022-10-16T06:19:20;138097.45;;;66813.13;;
23573;SDS011;11965;53.640;10.050;2022-10-16T06:21:46;138164.17;;;66837.23;;
23573;SDS011;11965;53.640;10.050;2022-10-16T06:24:12;138129.58;;;66823.24;;
23573;SDS011;11965;53.640;10.050;2022-10-16T06:26:37;138118.95;;;66813.64;;
23573;SDS011;11965;53.640;10.050;2022-10-16T06:29:04;138076.06;;;66799.95;;
23573;SDS011;11965;53.640;10.050;2022-10-16T06:31:30;138125.11;;;66822.52;;
23573;SDS011;11965;53.640;10.050;2022-10-16T06:33:58;138135.11;;;66824.96;;
23573;SDS011;11965;53.640;10.050;2022-10-16T06:36:24;137904.16;;;66732.67;;
23573;SDS011;11965;53.640;10.050;2022-10-16T06:38:51;137699.98;;;66652.85;;
23573;SDS011;11965;53.640;10.050;2022-10-16T06:41:18;138048.67;;;66788.64;;
23573;SDS011;11965;53.640;10.050;2022-10-16T06:43:45;138080.84;;;66799.79;;
23573;SDS011;11965;53.640;10.050;2022-10-16T06:46:13;138381.53;;;66922.06;;
23573;SDS011;11965;53.640;10.050;2022-10-16T06:48:40;138287.11;;;66883.70;;
23573;SDS011;11965;53.640;10.050;2022-10-16T06:51:13;138058.98;;;66791.03;;
23573;SDS011;11965;53.640;10.050;2022-10-16T06:53:45;138058.05;;;66789.95;;
23573;SDS011;11965;53.640;10.050;2022-10-16T06:58:41;137664.25;;;66628.99;;
23573;SDS011;11965;53.640;10.050;2022-10-16T07:01:08;137443.00;;;66540.80;;
23573;SDS011;11965;53.640;10.050;2022-10-16T07:03:38;137583.42;;;66592.73;;
23573;SDS011;11965;53.640;10.050;2022-10-16T07:06:05;137449.83;;;66536.21;;
23573;SDS011;11965;53.640;10.050;2022-10-16T07:08:33;137234.80;;;66449.77;;
23573;SDS011;11965;53.640;10.050;2022-10-16T07:11:01;137346.84;;;66496.13;;
23573;SDS011;11965;53.640;10.050;2022-10-16T07:13:29;137040.03;;;66368.24;;
23573;SDS011;11965;53.640;10.050;2022-10-16T07:15:54;136891.08;;;66307.05;;
23573;SDS011;11965;53.640;10.050;2022-10-16T07:18:20;136754.94;;;66255.54;;
23573;SDS011;11965;53.640;10.050;2022-10-16T07:20:47;137122.81;;;66400.52;;
23573;SDS011;11965;53.640;10.050;2022-10-16T07:23:12;136717.89;;;66238.95;;
23573;SDS011;11965;53.640;10.050;2022-10-16T07:25:38;136569.55;;;66180.58;;
23573;SDS011;11965;53.640;10.050;2022-10-16T07:28:03;136285.81;;;66064.32;;
23573;SDS011;11965;53.640;10.050;2022-10-16T07:30:29;136429.70;;;66119.91;;
23573;SDS011;11965;53.640;10.050;2022-10-16T07:32:54;136543.59;;;66170.83;;
23573;SDS011;11965;53.640;10.050;2022-10-16T07:35:20;136503.75;;;66152.24;;
23573;SDS011;11965;53.640;10.050;2022-10-16T07:37:46;136666.28;;;66214.62;;
23573;SDS011;11965;53.640;10.050;2022-10-16T07:40:12;135822.38;;;65879.46;;
23573;SDS011;11965;53.640;10.050;2022-10-16T07:42:38;136640.11;;;66212.56;;
23573;SDS011;11965;53.640;10.050;2022-10-16T07:45:04;136729.41;;;66242.27;;
23573;SDS011;11965;53.640;10.050;2022-10-16T07:47:30;136910.05;;;66310.66;;
23573;SDS011;11965;53.640;10.050;2022-10-16T07:49:55;136060.92;;;65971.08;;
23573;SDS011;11965;53.640;10.050;2022-10-16T07:52:21;136360.73;;;66091.57;;
23573;SDS011;11965;53.640;10.050;2022-10-16T07:56:49;135637.98;;;65790.61;;
23573;SDS011;11965;53.640;10.050;2022-10-16T08:01:44;135044.00;;;65548.77;;
23573;SDS011;11965;53.640;10.050;2022-10-16T08:04:10;135616.75;;;65790.07;;
23573;SDS011;11965;53.640;10.050;2022-10-16T08:06:37;135963.16;;;65925.43;;
23573;SDS011;11965;53.640;10.050;2022-10-16T08:09:04;136057.25;;;65959.41;;
23573;SDS011;11965;53.640;10.050;2022-10-16T08:11:31;136235.70;;;66034.18;;
23573;SDS011;11965;53.640;10.050;2022-10-16T08:13:58;136026.64;;;65954.84;;
23573;SDS011;11965;53.640;10.050;2022-10-16T08:16:23;136145.42;;;66000.57;;
23573;SDS011;11965;53.640;10.050;2022-10-16T08:18:49;135461.19;;;65733.83;;
23573;SDS011;11965;53.640;10.050;2022-10-16T08:21:17;135546.53;;;65759.30;;
23573;SDS011;11965;53.640;10.050;2022-10-16T08:23:46;135577.58;;;65775.60;;
23573;SDS011;11965;53.640;10.050;2022-10-16T08:26:12;135572.56;;;65777.45;;
23573;SDS011;11965;53.640;10.050;2022-10-16T08:28:38;135628.09;;;65794.55;;
23573;SDS011;11965;53.640;10.050;2022-10-16T08:31:05;135333.13;;;65674.12;;
23573;SDS011;11965;53.640;10.050;2022-10-16T08:33:39;135195.31;;;65620.20;;
23573;SDS011;11965;53.640;10.050;2022-10-16T08:36:07;135125.77;;;65594.23;;
23573;SDS011;11965;53.640;10.050;2022-10-16T08:38:35;135174.63;;;65609.48;;
23573;SDS011;11965;53.640;10.050;2022-10-16T08:41:22;135455.95;;;65720.30;;
23573;SDS011;11965;53.640;10.050;2022-10-16T08:44:20;135552.75;;;65755.27;;
23573;SDS011;11965;53.640;10.050;2022-10-16T08:50:09;135843.14;;;65876.46;;
23573;SDS011;11965;53.640;10.050;2022-10-16T08:52:41;136228.89;;;66033.27;;
23573;SDS011;11965;53.640;10.050;2022-10-16T08:55:18;136122.61;;;65989.16;;
23573;SDS011;11965;53.640;10.050;2022-10-16T08:58:15;136082.16;;;65978.72;;
23573;SDS011;11965;53.640;10.050;2022-10-16T09:00:46;135721.77;;;65838.10;;
23573;SDS011;11965;53.640;10.050;2022-10-16T09:03:22;135920.61;;;65920.91;;
23573;SDS011;11965;53.640;10.050;2022-10-16T09:06:32;136020.67;;;65959.76;;
23573;SDS011;11965;53.640;10.050;2022-10-16T09:12:03;135683.95;;;65822.11;;
23573;SDS011;11965;53.640;10.050;2022-10-16T09:20:42;134688.45;;;65415.76;;
23573;SDS011;11965;53.640;10.050;2022-10-16T09:23:22;134824.97;;;65470.40;;
23573;SDS011;11965;53.640;10.050;2022-10-16T09:25:52;134806.13;;;65460.50;;
23573;SDS011;11965;53.640;10.050;2022-10-16T09:28:19;134948.98;;;65516.99;;
23573;SDS011;11965;53.640;10.050;2022-10-16T09:30:45;134584.19;;;65374.20;;
23573;SDS011;11965;53.640;10.050;2022-10-16T09:33:13;134499.06;;;65335.70;;
23573;SDS011;11965;53.640;10.050;2022-10-16T09:35:46;134498.97;;;65337.41;;
23573;SDS011;11965;53.640;10.050;2022-10-16T09:38:25;134291.78;;;65247.31;;
23573;SDS011;11965;53.640;10.050;2022-10-16T09:40:56;134083.95;;;65164.91;;
23573;SDS011;11965;53.640;10.050;2022-10-16T09:43:35;134276.86;;;65248.44;;
23573;SDS011;11965;53.640;10.050;2022-10-16T09:46:08;134658.89;;;65402.25;;
23573;SDS011;11965;53.640;10.050;2022-10-16T09:48:47;134412.72;;;65296.38;;
23573;SDS011;11965;53.640;10.050;2022-10-16T09:51:20;134014.39;;;65147.08;;
23573;SDS011;11965;53.640;10.050;2022-10-16T09:53:54;134226.09;;;65228.96;;
23573;SDS011;11965;53.640;10.050;2022-10-16T09:56:31;134488.05;;;65332.51;;
23573;SDS011;11965;53.640;10.050;2022-10-16T09:59:01;134266.20;;;65245.35;;
23573;SDS011;11965;53.640;10.050;2022-10-16T10:01:40;134154.19;;;65191.54;;
23573;SDS011;11965;53.640;10.050;2022-10-16T10:04:09;134027.42;;;65142.00;;
23573;SDS011;11965;53.640;10.050;2022-10-16T10:06:37;134098.27;;;65169.97;;
23573;SDS011;11965;53.640;10.050;2022-10-16T10:11:48;133769.77;;;65041.45;;
23573;SDS011;11965;53.640;10.050;2022-10-16T10:14:19;134028.92;;;65144.24;;
23573;SDS011;11965;53.640;10.050;2022-10-16T10:16:46;133818.14;;;65058.35;;
23573;SDS011;11965;53.640;10.050;2022-10-16T10:19:22;133587.95;;;64967.29;;
23573;SDS011;11965;53.640;10.050;2022-10-16T10:21:49;133700.50;;;65008.01;;
23573;SDS011;11965;53.640;10.050;2022-10-16T10:24:18;133669.66;;;64991.49;;
23573;SDS011;11965;53.640;10.050;2022-10-16T10:26:49;133733.05;;;65021.37;;
23573;SDS011;11965;53.640;10.050;2022-10-16T10:29:28;133869.45;;;65075.27;;
23573;SDS011;11965;53.640;10.050;2022-10-16T10:37:37;133562.05;;;64945.97;;
23573;SDS011;11965;53.640;10.050;2022-10-16T10:40:11;133693.70;;;64996.32;;
23573;SDS011;11965;53.640;10.050;2022-10-16T10:43:01;133796.36;;;65035.74;;
23573;SDS011;11965;53.640;10.050;2022-10-16T10:45:43;133507.48;;;64929.24;;
23573;SDS011;11965;53.640;10.050;2022-10-16T10:56:47;133571.48;;;64943.31;;
23573;SDS011;11965;53.640;10.050;2022-10-16T11:10:40;132920.69;;;64688.00;;
23573;SDS011;11965;53.640;10.050;2022-10-16T11:13:32;133344.16;;;64853.12;;
23573;SDS011;11965;53.640;10.050;2022-10-16T11:16:02;133217.03;;;64812.51;;
23573;SDS011;11965;53.640;10.050;2022-10-16T11:18:50;133358.25;;;64863.85;;
23573;SDS011;11965;53.640;10.050;2022-10-16T11:21:24;133399.58;;;64877.61;;
23573;SDS011;11965;53.640;10.050;2022-10-16T11:26:28;133623.53;;;64964.03;;
23573;SDS011;11965;53.640;10.050;2022-10-16T11:28:59;133490.72;;;64909.91;;
23573;SDS011;11965;53.640;10.050;2022-10-16T11:31:32;133003.22;;;64715.61;;
23573;SDS011;11965;53.640;10.050;2022-10-16T11:34:06;133068.17;;;64739.15;;
23573;SDS011;11965;53.640;10.050;2022-10-16T11:36:44;132341.95;;;64447.98;;
23573;SDS011;11965;53.640;10.050;2022-10-16T11:39:26;132320.33;;;64444.59;;
23573;SDS011;11965;53.640;10.050;2022-10-16T11:50:01;132683.98;;;64589.68;;
23573;SDS011;11965;53.640;10.050;2022-10-16T11:52:39;132712.63;;;64598.93;;
23573;SDS011;11965;53.640;10.050;2022-10-16T11:55:24;132949.55;;;64695.20;;
23573;SDS011;11965;53.640;10.050;2022-10-16T11:58:00;132671.52;;;64582.02;;
23573;SDS011;11965;53.640;10.050;2022-10-16T12:00:43;133126.67;;;64763.52;;
23573;SDS011;11965;53.640;10.050;2022-10-16T12:03:27;133296.34;;;64835.88;;
23573;SDS011;11965;53.640;10.050;2022-10-16T12:08:52;133306.11;;;64837.37;;
23573;SDS011;11965;53.640;10.050;2022-10-16T12:11:22;133100.66;;;64757.43;;
23573;SDS011;11965;53.640;10.050;2022-10-16T12:19:59;132984.83;;;64712.91;;
23573;SDS011;11965;53.640;10.050;2022-10-16T12:22:47;132817.09;;;64645.72;;
23573;SDS011;11965;53.640;10.050;2022-10-16T12:25:21;132785.08;;;64632.68;;
23573;SDS011;11965;53.640;10.050;2022-10-16T12:30:39;132639.70;;;64570.75;;
23573;SDS011;11965;53.640;10.050;2022-10-16T12:36:06;132601.89;;;64557.42;;
23573;SDS011;11965;53.640;10.050;2022-10-16T12:38:46;132736.33;;;64611.46;;
23573;SDS011;11965;53.640;10.050;2022-10-16T12:41:24;132540.66;;;64526.56;;
23573;SDS011;11965;53.640;10.050;2022-10-16T12:43:55;132431.06;;;64485.90;;
23573;SDS011;11965;53.640;10.050;2022-10-16T12:46:23;132158.72;;;64377.15;;
23573;SDS011;11965;53.640;10.050;2022-10-16T12:51:38;132224.61;;;64398.32;;
23573;SDS011;11965;53.640;10.050;2022-10-16T12:54:11;132233.92;;;64404.66;;
23573;SDS011;11965;53.640;10.050;2022-10-16T13:02:36;132101.55;;;64346.09;;
23573;SDS011;11965;53.640;10.050;2022-10-16T13:30:11;132274.70;;;64420.00;;
23573;SDS011;11965;53.640;10.050;2022-10-16T13:32:46;132213.81;;;64400.94;;
23573;SDS011;11965;53.640;10.050;2022-10-16T13:35:26;132091.36;;;64344.26;;
23573;SDS011;11965;53.640;10.050;2022-10-16T13:38:13;132374.73;;;64455.53;;
23573;SDS011;11965;53.640;10.050;2022-10-16T13:43:21;131840.47;;;64243.10;;
23573;SDS011;11965;53.640;10.050;2022-10-16T13:46:15;131648.67;;;64165.41;;
23573;SDS011;11965;53.640;10.050;2022-10-16T13:48:43;131631.20;;;64156.65;;
23573;SDS011;11965;53.640;10.050;2022-10-16T13:51:13;131636.63;;;64158.99;;
23573;SDS011;11965;53.640;10.050;2022-10-16T13:53:41;131778.23;;;64214.86;;
23573;SDS011;11965;53.640;10.050;2022-10-16T13:56:15;131723.48;;;64198.21;;
23573;SDS011;11965;53.640;10.050;2022-10-16T13:58:43;131849.55;;;64245.37;;
23573;SDS011;11965;53.640;10.050;2022-10-16T14:01:43;131924.52;;;64276.48;;
23573;SDS011;11965;53.640;10.050;2022-10-16T14:04:05;131697.78;;;64178.12;;
23573;SDS011;11965;53.640;10.050;2022-10-16T14:06:34;131827.41;;;64233.68;;
23573;SDS011;11965;53.640;10.050;2022-10-16T14:09:06;131885.42;;;64255.85;;
23573;SDS011;11965;53.640;10.050;2022-10-16T14:11:49;131568.08;;;64131.38;;
23573;SDS011;11965;53.640;10.050;2022-10-16T14:14:18;131906.05;;;64268.60;;
23573;SDS011;11965;53.640;10.050;2022-10-16T14:16:45;132525.08;;;64514.39;;
23573;SDS011;11965;53.640;10.050;2022-10-16T14:21:54;132631.66;;;64556.44;;
23573;SDS011;11965;53.640;10.050;2022-10-16T14:24:34;132548.98;;;64525.72;;
23573;SDS011;11965;53.640;10.050;2022-10-16T14:27:00;132370.66;;;64457.40;;
23573;SDS011;11965;53.640;10.050;2022-10-16T14:29:28;132750.58;;;64605.94;;
23573;SDS011;11965;53.640;10.050;2022-10-16T14:32:05;132472.53;;;64496.82;;
23573;SDS011;11965;53.640;10.050;2022-10-16T14:34:34;132666.50;;;64576.81;;
23573;SDS011;11965;53.640;10.050;2022-10-16T14:39:51;132644.25;;;64564.58;;
23573;SDS011;11965;53.640;10.050;2022-10-16T14:42:20;132596.45;;;64548.66;;
23573;SDS011;11965;53.640;10.050;2022-10-16T14:44:52;132610.80;;;64553.59;;
23573;SDS011;11965;53.640;10.050;2022-10-16T14:47:24;132420.47;;;64478.71;;
23573;SDS011;11965;53.640;10.050;2022-10-16T14:49:52;132330.77;;;64444.49;;
23573;SDS011;11965;53.640;10.050;2022-10-16T14:52:21;132247.27;;;64412.97;;
23573;SDS011;11965;53.640;10.050;2022-10-16T14:54:50;132311.14;;;64437.44;;
23573;SDS011;11965;53.640;10.050;2022-10-16T14:57:23;132324.27;;;64442.32;;
23573;SDS011;11965;53.640;10.050;2022-10-16T14:59:52;132584.05;;;64545.11;;
23573;SDS011;11965;53.640;10.050;2022-10-16T15:02:28;132690.70;;;64587.01;;
23573;SDS011;11965;53.640;10.050;2022-10-16T15:05:02;132481.41;;;64504.53;;
23573;SDS011;11965;53.640;10.050;2022-10-16T15:07:37;132864.17;;;64658.49;;
23573;SDS011;11965;53.640;10.050;2022-10-16T15:10:03;133122.88;;;64761.85;;
23573;SDS011;11965;53.640;10.050;2022-10-16T15:12:29;133216.48;;;64798.64;;
23573;SDS011;11965;53.640;10.050;2022-10-16T15:14:54;133307.02;;;64833.91;;
23573;SDS011;11965;53.640;10.050;2022-10-16T15:17:20;133524.59;;;64917.92;;
23573;SDS011;11965;53.640;10.050;2022-10-16T15:19:45;133282.84;;;64820.76;;